createdAt,value
2018-12-14T00:01:23.127Z,105.47
2018-12-14T00:03:52.089Z,120.77
2018-12-14T00:06:20.986Z,105.13
2018-12-14T00:08:49.972Z,97.97
2018-12-14T00:11:19.053Z,76.53
2018-12-14T00:13:48.162Z,58.97
2018-12-14T00:16:17.073Z,44.87
2018-12-14T00:18:46.049Z,41.23
2018-12-14T00:21:15.056Z,37.13
2018-12-14T00:23:43.969Z,37.77
2018-12-14T00:26:13.025Z,41.37
2018-12-14T00:28:42.433Z,38.07
2018-12-14T00:31:11.435Z,43.03
2018-12-14T00:33:40.438Z,42.83
2018-12-14T00:36:09.347Z,46.30
2018-12-14T00:38:38.257Z,38.87
2018-12-14T00:41:07.459Z,40.43
2018-12-14T00:43:36.393Z,51.77
2018-12-14T00:46:05.324Z,75.70
2018-12-14T00:48:34.455Z,62.27
2018-12-14T00:51:03.360Z,53.63
2018-12-14T00:53:32.254Z,59.07
2018-12-14T00:56:01.142Z,55.27
2018-12-14T00:58:29.969Z,49.20
2018-12-14T01:00:58.800Z,52.37
2018-12-14T01:03:27.811Z,55.33
2018-12-14T01:05:56.611Z,51.47
2018-12-14T01:08:25.516Z,57.20
2018-12-14T01:10:54.431Z,50.97
2018-12-14T01:13:23.461Z,58.13
2018-12-14T01:15:52.259Z,54.70
2018-12-14T01:18:21.217Z,50.90
2018-12-14T01:20:50.185Z,56.87
2018-12-14T01:23:19.125Z,53.20
2018-12-14T01:25:48.017Z,58.40
2018-12-14T01:28:17.317Z,55.37
2018-12-14T01:30:46.325Z,54.93
2018-12-14T01:33:15.245Z,54.00
2018-12-14T01:35:44.135Z,55.23
2018-12-14T01:38:13.125Z,60.90
2018-12-14T01:40:42.020Z,55.33
2018-12-14T01:43:10.928Z,53.73
2018-12-14T01:45:39.953Z,50.77
2018-12-14T01:48:08.792Z,52.40
2018-12-14T01:50:37.907Z,50.83
2018-12-14T01:53:06.924Z,42.77
2018-12-14T01:55:36.321Z,48.07
2018-12-14T01:58:05.346Z,59.10
2018-12-14T02:00:34.316Z,53.50
2018-12-14T02:03:03.393Z,59.93
2018-12-14T02:05:32.500Z,54.83
2018-12-14T02:08:01.453Z,46.20
2018-12-14T02:10:30.395Z,45.60
2018-12-14T02:12:59.325Z,45.27
2018-12-14T02:15:28.236Z,39.57
2018-12-14T02:17:57.141Z,47.27
2018-12-14T02:20:26.039Z,56.33
2018-12-14T02:22:54.950Z,50.13
2018-12-14T02:25:23.869Z,52.10
2018-12-14T02:27:52.750Z,49.10
2018-12-14T02:30:46.150Z,52.63
2018-12-14T02:33:14.941Z,45.60
2018-12-14T02:35:43.975Z,47.73
2018-12-14T02:38:13.351Z,46.20
2018-12-14T02:40:42.408Z,51.13
2018-12-14T02:43:11.400Z,54.70
2018-12-14T02:45:40.402Z,52.90
2018-12-14T02:48:09.224Z,51.73
2018-12-14T02:50:38.139Z,55.30
2018-12-14T02:53:07.066Z,51.43
2018-12-14T02:55:35.994Z,59.83
2018-12-14T02:58:04.916Z,55.30
2018-12-14T03:00:33.857Z,55.80
2018-12-14T03:03:02.775Z,48.30
2018-12-14T03:05:31.760Z,46.80
2018-12-14T03:08:00.667Z,48.60
2018-12-14T03:13:05.645Z,53.07
2018-12-14T03:15:35.170Z,46.13
2018-12-14T03:18:04.184Z,50.70
2018-12-14T03:20:33.003Z,43.03
2018-12-14T03:23:01.898Z,40.77
2018-12-14T03:25:30.926Z,48.70
2018-12-14T03:27:59.849Z,48.23
2018-12-14T03:30:28.747Z,50.43
2018-12-14T03:32:57.782Z,51.50
2018-12-14T03:35:26.810Z,54.23
2018-12-14T03:37:55.730Z,52.40
2018-12-14T03:40:24.652Z,53.13
2018-12-14T03:42:53.544Z,49.17
2018-12-14T03:45:22.447Z,44.30
2018-12-14T03:47:51.325Z,47.50
2018-12-14T03:50:20.204Z,45.47
2018-12-14T03:52:49.225Z,48.50
2018-12-14T03:55:18.162Z,48.47
2018-12-14T03:57:47.069Z,48.23
2018-12-14T04:00:16.754Z,49.00
2018-12-14T04:02:45.881Z,47.03
2018-12-14T04:05:14.923Z,48.03
2018-12-14T04:07:43.927Z,44.07
2018-12-14T04:10:12.862Z,46.87
2018-12-14T04:12:42.207Z,48.67
2018-12-14T04:15:11.580Z,44.13
2018-12-14T04:17:40.677Z,52.73
2018-12-14T04:20:09.677Z,44.20
2018-12-14T04:22:38.569Z,43.27
2018-12-14T04:25:07.629Z,47.73
2018-12-14T04:27:36.606Z,52.40
2018-12-14T04:30:06.300Z,43.63
2018-12-14T04:32:35.191Z,43.60
2018-12-14T04:35:04.680Z,41.90
2018-12-14T04:37:33.573Z,39.97
2018-12-14T04:40:03.028Z,38.03
2018-12-14T04:42:32.485Z,33.20
2018-12-14T04:45:01.388Z,36.43
2018-12-14T04:47:30.443Z,30.57
2018-12-14T04:49:59.352Z,33.13
2018-12-14T04:52:28.348Z,31.30
2018-12-14T04:54:57.131Z,38.23
2018-12-14T04:57:26.062Z,35.33
2018-12-14T04:59:55.060Z,37.37
2018-12-14T05:02:23.949Z,36.93
2018-12-14T05:04:53.189Z,38.00
2018-12-14T05:07:22.121Z,50.93
2018-12-14T05:09:51.041Z,45.07
2018-12-14T05:12:20.027Z,50.80
2018-12-14T05:14:49.283Z,45.03
2018-12-14T05:17:18.347Z,55.40
2018-12-14T05:19:47.352Z,39.60
2018-12-14T05:22:16.156Z,44.03
2018-12-14T05:24:45.040Z,39.77
2018-12-14T05:27:14.093Z,46.43
2018-12-14T05:29:43.502Z,45.40
2018-12-14T05:32:12.497Z,43.37
2018-12-14T05:34:41.493Z,48.47
2018-12-14T05:37:10.292Z,50.13
2018-12-14T05:39:39.193Z,89.60
2018-12-14T05:42:09.253Z,168.10
2018-12-14T05:44:38.157Z,109.63
2018-12-14T05:47:07.046Z,57.50
2018-12-14T05:49:36.093Z,44.37
2018-12-14T05:52:04.930Z,41.27
2018-12-14T05:54:33.827Z,41.10
2018-12-14T05:57:02.832Z,47.67
2018-12-14T05:59:31.909Z,41.77
2018-12-14T06:02:00.820Z,45.23
2018-12-14T06:04:29.725Z,39.37
2018-12-14T06:06:58.709Z,47.63
2018-12-14T06:09:27.544Z,49.47
2018-12-14T06:11:56.469Z,50.30
2018-12-14T06:14:25.596Z,73.20
2018-12-14T06:16:54.530Z,74.67
2018-12-14T06:19:23.439Z,78.30
2018-12-14T06:21:52.533Z,80.20
2018-12-14T06:24:21.426Z,87.73
2018-12-14T06:26:50.347Z,115.13
2018-12-14T06:29:19.287Z,100.23
2018-12-14T06:31:48.191Z,110.80
2018-12-14T06:34:17.085Z,64.77
2018-12-14T06:36:45.956Z,66.70
2018-12-14T06:39:15.030Z,61.03
2018-12-14T06:41:44.288Z,62.67
2018-12-14T06:44:13.089Z,60.33
2018-12-14T06:46:41.996Z,66.87
2018-12-14T06:49:10.913Z,63.80
2018-12-14T06:51:39.963Z,63.40
2018-12-14T06:54:09.456Z,68.57
2018-12-14T06:56:38.258Z,79.03
2018-12-14T06:59:07.053Z,91.03
2018-12-14T07:01:35.939Z,87.70
2018-12-14T07:04:04.882Z,106.20
2018-12-14T07:06:33.784Z,84.87
2018-12-14T07:09:04.510Z,70.83
2018-12-14T07:11:33.560Z,71.07
2018-12-14T07:14:03.622Z,68.93
2018-12-14T07:16:32.781Z,64.50
2018-12-14T07:19:01.693Z,63.77
2018-12-14T07:21:30.589Z,77.13
2018-12-14T07:23:59.520Z,70.70
2018-12-14T07:26:28.690Z,73.47
2018-12-14T07:28:57.729Z,63.67
2018-12-14T07:31:26.632Z,65.50
2018-12-14T07:33:55.628Z,68.37
2018-12-14T07:36:24.532Z,73.97
2018-12-14T07:38:53.463Z,70.70
2018-12-14T07:41:22.367Z,61.10
2018-12-14T07:43:51.312Z,56.10
2018-12-14T07:46:20.589Z,63.47
2018-12-14T07:48:49.633Z,61.83
2018-12-14T07:51:18.429Z,56.37
2018-12-14T07:53:47.504Z,57.97
2018-12-14T07:56:16.281Z,59.63
2018-12-14T07:58:45.442Z,63.93
2018-12-14T08:01:14.696Z,59.87
2018-12-14T08:03:43.614Z,58.83
2018-12-14T08:06:12.503Z,56.50
2018-12-14T08:08:41.429Z,62.30
2018-12-14T08:11:10.439Z,67.27
2018-12-14T08:13:39.437Z,54.43
2018-12-14T08:16:08.419Z,65.53
2018-12-14T08:18:40.326Z,86.00
2018-12-14T08:21:09.294Z,73.27
2018-12-14T08:23:38.201Z,80.10
2018-12-14T08:26:07.159Z,73.40
2018-12-14T08:28:36.111Z,65.23
2018-12-14T08:31:05.040Z,67.43
2018-12-14T08:33:33.816Z,73.90
2018-12-14T08:36:02.757Z,64.77
2018-12-14T08:38:31.890Z,71.30
2018-12-14T08:41:00.780Z,71.17
2018-12-14T08:43:29.897Z,67.63
2018-12-14T08:45:58.697Z,65.97
2018-12-14T08:48:27.857Z,74.47
2018-12-14T08:50:56.758Z,74.03
2018-12-14T08:53:25.926Z,70.10
2018-12-14T08:55:55.082Z,65.30
2018-12-14T08:58:23.970Z,66.67
2018-12-14T09:00:52.919Z,70.70
2018-12-14T09:03:21.808Z,74.10
2018-12-14T09:05:50.817Z,80.27
2018-12-14T09:08:19.737Z,80.63
2018-12-14T09:10:48.657Z,75.00
2018-12-14T09:13:17.761Z,87.37
2018-12-14T09:15:46.707Z,93.20
2018-12-14T09:18:15.596Z,96.33
2018-12-14T09:20:44.502Z,107.83
2018-12-14T09:23:13.521Z,107.10
2018-12-14T09:25:42.487Z,100.93
2018-12-14T09:28:11.565Z,109.40
2018-12-14T09:30:42.841Z,108.07
2018-12-14T09:33:11.628Z,101.33
2018-12-14T09:35:40.501Z,94.67
2018-12-14T09:38:09.549Z,94.20
2018-12-14T09:40:38.565Z,99.53
2018-12-14T09:43:07.528Z,96.27
2018-12-14T09:45:36.564Z,97.80
2018-12-14T09:48:05.557Z,94.50
2018-12-14T09:50:34.571Z,101.47
2018-12-14T09:53:03.464Z,97.30
2018-12-14T09:55:32.424Z,98.53
2018-12-14T09:58:01.370Z,101.50
2018-12-14T10:00:30.269Z,93.07
2018-12-14T10:02:59.689Z,96.60
2018-12-14T10:05:28.628Z,105.50
2018-12-14T10:07:57.519Z,102.07
2018-12-14T10:10:26.366Z,102.00
2018-12-14T10:12:55.290Z,108.17
2018-12-14T10:15:24.600Z,104.60
2018-12-14T10:17:53.633Z,106.13
2018-12-14T10:20:22.861Z,108.97
2018-12-14T10:22:51.788Z,108.23
2018-12-14T10:25:20.681Z,106.47
2018-12-14T10:27:49.678Z,105.83
2018-12-14T10:30:18.603Z,116.97
2018-12-14T10:32:47.704Z,120.77
2018-12-14T10:35:16.660Z,118.07
2018-12-14T10:37:45.703Z,124.37
2018-12-14T10:40:14.634Z,131.17
2018-12-14T10:42:43.550Z,117.20
2018-12-14T10:45:12.561Z,125.70
2018-12-14T10:47:41.456Z,126.73
2018-12-14T10:50:10.381Z,129.87
2018-12-14T10:52:39.341Z,135.87
2018-12-14T10:55:08.377Z,142.30
2018-12-14T10:57:37.748Z,153.17
2018-12-14T11:00:15.648Z,151.70
2018-12-14T11:02:44.675Z,160.03
2018-12-14T11:05:13.609Z,148.80
2018-12-14T11:07:42.451Z,153.40
2018-12-14T11:10:11.617Z,171.77
2018-12-14T11:12:40.488Z,167.10
2018-12-14T11:15:09.422Z,160.10
2018-12-14T11:17:38.517Z,152.20
2018-12-14T11:20:09.209Z,146.77
2018-12-14T11:22:38.121Z,140.03
2018-12-14T11:25:07.912Z,138.10
2018-12-14T11:27:36.842Z,110.80
2018-12-14T11:30:07.575Z,118.20
2018-12-14T11:32:36.527Z,125.60
2018-12-14T11:35:05.541Z,119.70
2018-12-14T11:37:34.472Z,115.60
2018-12-14T11:40:04.915Z,106.27
2018-12-14T11:42:33.937Z,114.03
2018-12-14T11:45:03.066Z,119.47
2018-12-14T11:47:32.135Z,110.20
2018-12-14T11:50:01.059Z,123.53
2018-12-14T11:52:29.941Z,144.23
2018-12-14T11:54:58.840Z,138.60
2018-12-14T11:57:27.829Z,133.60
2018-12-14T11:59:56.873Z,134.30
2018-12-14T12:02:25.805Z,133.30
2018-12-14T12:04:54.700Z,128.57
2018-12-14T12:07:23.809Z,120.13
2018-12-14T12:09:52.741Z,127.33
2018-12-14T12:12:21.708Z,135.23
2018-12-14T12:14:50.654Z,146.73
2018-12-14T12:17:19.595Z,144.27
2018-12-14T12:19:48.505Z,148.47
2018-12-14T12:22:17.401Z,140.47
2018-12-14T12:24:46.378Z,128.40
2018-12-14T12:27:15.284Z,116.07
2018-12-14T12:29:44.202Z,116.60
2018-12-14T12:32:13.193Z,129.37
2018-12-14T12:34:42.179Z,139.30
2018-12-14T12:37:10.990Z,138.30
2018-12-14T12:39:39.873Z,136.83
2018-12-14T12:42:08.949Z,141.37
2018-12-14T12:44:37.879Z,136.77
2018-12-14T12:47:06.792Z,122.03
2018-12-14T12:49:35.786Z,136.30
2018-12-14T12:52:04.684Z,141.37
2018-12-14T12:54:33.634Z,130.60
2018-12-14T12:57:02.544Z,133.03
2018-12-14T12:59:32.016Z,126.20
2018-12-14T13:02:01.266Z,117.90
2018-12-14T13:04:30.441Z,115.87
2018-12-14T13:06:59.329Z,131.27
2018-12-14T13:09:28.267Z,94.83
2018-12-14T13:11:57.305Z,90.73
2018-12-14T13:14:26.198Z,80.03
2018-12-14T13:16:55.178Z,82.20
2018-12-14T13:19:24.112Z,79.50
2018-12-14T13:21:53.089Z,79.07
2018-12-14T13:24:22.381Z,83.60
2018-12-14T13:26:51.318Z,84.93
2018-12-14T13:29:20.558Z,79.30
2018-12-14T13:31:49.568Z,94.43
2018-12-14T13:34:18.538Z,99.33
2018-12-14T13:36:48.043Z,94.47
2018-12-14T13:39:17.809Z,92.80
2018-12-14T13:41:47.177Z,97.37
2018-12-14T13:44:16.068Z,96.30
2018-12-14T13:46:45.009Z,94.63
2018-12-14T13:49:13.899Z,108.00
2018-12-14T13:51:42.896Z,104.13
2018-12-14T13:54:11.966Z,104.60
2018-12-14T13:56:41.425Z,95.63
2018-12-14T13:59:10.512Z,102.70
2018-12-14T14:01:39.627Z,106.77
2018-12-14T14:04:08.673Z,101.00
2018-12-14T14:06:37.864Z,101.80
2018-12-14T14:09:07.017Z,133.37
2018-12-14T14:11:36.080Z,112.23
2018-12-14T14:14:05.116Z,115.37
2018-12-14T14:16:34.229Z,104.47
2018-12-14T14:19:03.208Z,108.73
2018-12-14T14:21:32.340Z,109.80
2018-12-14T14:24:01.432Z,103.17
2018-12-14T14:26:30.733Z,99.63
2018-12-14T14:28:59.841Z,92.10
2018-12-14T14:31:29.059Z,109.60
2018-12-14T14:33:58.070Z,161.07
2018-12-14T14:36:27.065Z,147.60
2018-12-14T14:38:56.656Z,166.00
2018-12-14T14:41:25.830Z,168.13
2018-12-14T14:43:55.143Z,154.67
2018-12-14T14:46:24.653Z,175.10
2018-12-14T14:48:54.314Z,156.63
2018-12-14T14:51:23.600Z,142.90
2018-12-14T14:53:53.676Z,152.20
2018-12-14T14:56:22.696Z,159.90
2018-12-14T14:58:51.600Z,170.53
2018-12-14T15:01:20.517Z,165.77
2018-12-14T15:03:49.823Z,157.53
2018-12-14T15:06:19.532Z,153.70
2018-12-14T15:08:49.898Z,156.87
2018-12-14T15:11:19.136Z,175.23
2018-12-14T15:13:48.292Z,155.57
2018-12-14T15:16:17.316Z,161.83
2018-12-14T15:18:46.401Z,172.17
2018-12-14T15:21:15.828Z,177.17
2018-12-14T15:23:44.881Z,168.37
2018-12-14T15:26:13.893Z,186.90
2018-12-14T15:28:43.931Z,170.40
2018-12-14T15:31:12.928Z,192.50
2018-12-14T15:33:41.849Z,201.37
2018-12-14T15:36:10.842Z,197.17
2018-12-14T15:38:39.736Z,193.03
2018-12-14T15:41:08.832Z,212.87
2018-12-14T15:43:37.948Z,242.20
2018-12-14T15:46:06.868Z,248.20
2018-12-14T15:48:36.019Z,243.13
2018-12-14T15:51:04.905Z,224.53
2018-12-14T15:53:34.341Z,168.90
2018-12-14T15:56:03.869Z,154.67
2018-12-14T15:58:32.976Z,149.87
2018-12-14T16:01:02.114Z,156.20
2018-12-14T16:03:31.425Z,136.93
2018-12-14T16:06:00.413Z,147.50
2018-12-14T16:08:29.519Z,152.23
2018-12-14T16:10:58.434Z,143.23
2018-12-14T16:13:27.381Z,162.90
2018-12-14T16:15:56.326Z,153.03
2018-12-14T16:18:26.544Z,169.97
2018-12-14T16:20:55.654Z,167.23
2018-12-14T16:23:25.005Z,150.77
2018-12-14T16:25:54.573Z,164.40
2018-12-14T16:28:24.142Z,219.93
2018-12-14T16:30:53.168Z,205.40
2018-12-14T16:33:22.074Z,213.00
2018-12-14T16:35:51.056Z,195.67
2018-12-14T16:38:20.285Z,189.00
2018-12-14T16:40:49.089Z,228.43
2018-12-14T16:43:18.009Z,240.27
2018-12-14T16:45:47.445Z,239.20
2018-12-14T16:48:16.544Z,245.07
2018-12-14T16:50:45.521Z,253.83
2018-12-14T16:53:14.760Z,226.30
2018-12-14T16:55:43.844Z,223.20
2018-12-14T16:58:13.085Z,205.57
2018-12-14T17:00:42.162Z,207.77
2018-12-14T17:03:11.461Z,202.60
2018-12-14T17:05:40.252Z,196.77
2018-12-14T17:08:10.065Z,205.40
2018-12-14T17:10:39.144Z,211.47
2018-12-14T17:13:08.683Z,203.30
2018-12-14T17:15:37.789Z,199.07
2018-12-14T17:18:06.726Z,206.93
2018-12-14T17:20:35.944Z,212.73
2018-12-14T17:23:04.924Z,212.03
2018-12-14T17:25:34.629Z,217.70
2018-12-14T17:28:03.965Z,222.73
2018-12-14T17:30:33.180Z,198.07
2018-12-14T17:33:02.057Z,192.97
2018-12-14T17:35:31.173Z,216.70
2018-12-14T17:38:00.161Z,208.10
2018-12-14T17:40:29.576Z,204.70
2018-12-14T17:42:58.954Z,207.83
2018-12-14T17:45:30.950Z,180.23
2018-12-14T17:48:00.083Z,180.27
2018-12-14T17:50:29.096Z,185.23
2018-12-14T17:52:59.216Z,185.07
2018-12-14T17:55:28.219Z,187.63
2018-12-14T17:57:57.260Z,175.80
2018-12-14T18:00:26.358Z,202.27
2018-12-14T18:02:56.157Z,209.63
2018-12-14T18:05:25.077Z,196.40
2018-12-14T18:07:54.041Z,202.17
2018-12-14T18:10:23.222Z,202.37
2018-12-14T18:12:52.180Z,206.00
2018-12-14T18:15:21.173Z,207.80
2018-12-14T18:17:50.211Z,200.63
2018-12-14T18:20:20.438Z,163.83
2018-12-14T18:22:49.688Z,179.93
2018-12-14T18:25:18.860Z,163.00
2018-12-14T18:27:47.787Z,140.77
2018-12-14T18:30:16.745Z,148.87
2018-12-14T18:32:45.729Z,140.87
2018-12-14T18:35:14.628Z,152.83
2018-12-14T18:37:44.226Z,152.80
2018-12-14T18:40:13.244Z,150.57
2018-12-14T18:42:42.236Z,146.93
2018-12-14T18:45:11.352Z,166.23
2018-12-14T18:47:40.447Z,171.23
2018-12-14T18:50:09.582Z,189.67
2018-12-14T18:52:38.621Z,194.37
2018-12-14T18:55:07.787Z,185.23
2018-12-14T18:57:36.729Z,180.33
2018-12-14T19:00:07.780Z,171.10
2018-12-14T19:02:36.810Z,181.07
2018-12-14T19:05:06.632Z,174.97
2018-12-14T19:07:35.642Z,186.93
2018-12-14T19:10:05.244Z,188.13
2018-12-14T19:12:35.404Z,200.17
2018-12-14T19:15:07.688Z,207.63
2018-12-14T19:17:36.692Z,209.83
2018-12-14T19:20:06.520Z,203.93
2018-12-14T19:22:35.734Z,194.63
2018-12-14T19:25:04.997Z,211.30
2018-12-14T19:27:34.506Z,216.40
2018-12-14T19:30:04.089Z,194.80
2018-12-14T19:32:33.188Z,186.00
2018-12-14T19:35:03.016Z,228.63
2018-12-14T19:37:31.928Z,217.73
2018-12-14T19:40:00.830Z,227.93
2018-12-14T19:42:29.739Z,219.30
2018-12-14T19:44:58.731Z,227.67
2018-12-14T19:47:27.773Z,227.93
2018-12-14T19:49:57.028Z,237.17
2018-12-14T19:52:26.260Z,230.33
2018-12-14T19:54:55.927Z,211.57
2018-12-14T19:57:24.916Z,182.07
2018-12-14T19:59:53.858Z,204.77
2018-12-14T20:02:22.798Z,212.83
2018-12-14T20:04:52.077Z,200.47
2018-12-14T20:07:22.149Z,202.97
2018-12-14T20:09:51.145Z,220.37
2018-12-14T20:12:20.266Z,174.57
2018-12-14T20:14:49.268Z,176.93
2018-12-14T20:17:18.251Z,176.37
2018-12-14T20:19:47.572Z,159.97
2018-12-14T20:22:17.729Z,170.30
2018-12-14T20:24:46.776Z,170.87
2018-12-14T20:27:15.661Z,176.53
2018-12-14T20:29:44.784Z,164.97
2018-12-14T20:32:13.778Z,162.87
2018-12-14T20:34:42.573Z,173.17
2018-12-14T20:37:11.574Z,187.33
2018-12-14T20:39:40.585Z,189.83
2018-12-14T20:42:10.497Z,164.67
2018-12-14T20:44:39.417Z,181.50
2018-12-14T20:47:08.413Z,212.50
2018-12-14T20:49:37.225Z,203.10
2018-12-14T20:52:06.215Z,172.90
2018-12-14T20:54:35.005Z,185.80
2018-12-14T20:57:04.038Z,183.80
2018-12-14T20:59:32.952Z,166.33
2018-12-14T21:02:01.845Z,146.33
2018-12-14T21:04:31.033Z,154.83
2018-12-14T21:06:59.935Z,130.73
2018-12-14T21:09:28.824Z,111.73
2018-12-14T21:11:57.900Z,99.23
2018-12-14T21:14:27.205Z,106.33
2018-12-14T21:16:56.098Z,102.57
2018-12-14T21:19:24.998Z,108.67
2018-12-14T21:21:54.023Z,96.97
2018-12-14T21:24:22.790Z,94.70
2018-12-14T21:26:51.585Z,102.37
2018-12-14T21:29:20.501Z,104.23
2018-12-14T21:31:49.412Z,99.73
2018-12-14T21:34:19.281Z,101.63
2018-12-14T21:36:48.178Z,96.97
2018-12-14T21:39:17.152Z,101.37
2018-12-14T21:41:45.945Z,101.13
2018-12-14T21:44:15.980Z,109.07
2018-12-14T21:46:44.892Z,118.53
2018-12-14T21:49:13.892Z,106.47
2018-12-14T21:51:42.780Z,101.27
2018-12-14T21:54:11.781Z,110.63
2018-12-14T21:56:40.569Z,91.37
2018-12-14T21:59:09.804Z,99.83
2018-12-14T22:01:38.692Z,100.77
2018-12-14T22:04:07.584Z,98.47
2018-12-14T22:06:36.988Z,102.13
2018-12-14T22:09:08.381Z,103.33
2018-12-14T22:11:37.385Z,110.63
2018-12-14T22:14:06.462Z,104.33
2018-12-14T22:16:39.179Z,107.40
2018-12-14T22:19:06.479Z,100.27
2018-12-14T22:21:35.377Z,97.47
2018-12-14T22:24:04.500Z,104.97
2018-12-14T22:26:33.576Z,105.80
2018-12-14T22:29:02.589Z,104.83
2018-12-14T22:31:31.513Z,111.93
2018-12-14T22:34:00.535Z,103.33
2018-12-14T22:36:29.497Z,104.70
2018-12-14T22:38:58.279Z,106.97
2018-12-14T22:41:27.193Z,98.20
2018-12-14T22:43:55.992Z,102.13
2018-12-14T22:46:24.956Z,94.97
2018-12-14T22:48:53.862Z,105.87
2018-12-14T22:51:22.849Z,104.73
2018-12-14T22:53:51.730Z,105.43
2018-12-14T22:56:20.673Z,113.10
2018-12-14T22:58:49.822Z,116.80
2018-12-14T23:01:18.697Z,115.30
2018-12-14T23:03:47.688Z,109.63
2018-12-14T23:06:16.853Z,109.63
2018-12-14T23:08:45.741Z,115.73
2018-12-14T23:11:14.621Z,108.87
2018-12-14T23:13:43.517Z,106.47
2018-12-14T23:16:12.633Z,121.00
2018-12-14T23:18:41.581Z,110.53
2018-12-14T23:21:10.356Z,113.50
2018-12-14T23:23:39.328Z,107.97
2018-12-14T23:26:08.261Z,119.03
2018-12-14T23:28:37.140Z,132.00
2018-12-14T23:31:06.069Z,120.27
2018-12-14T23:33:34.865Z,116.17
2018-12-14T23:36:03.778Z,123.57
2018-12-14T23:38:32.856Z,115.93
2018-12-14T23:41:01.781Z,119.03
2018-12-14T23:43:30.872Z,115.20
2018-12-14T23:45:59.767Z,118.33
2018-12-14T23:48:28.672Z,118.83
2018-12-14T23:50:57.614Z,116.67
2018-12-14T23:53:26.505Z,122.03
2018-12-14T23:55:55.416Z,124.60
2018-12-14T23:58:24.296Z,121.90
